Mount Carmel, Tennessee
Current Conditions -  °F | °C
As of 9:23 AM on Thursday 27 Nov 2014 (Local Time) from KTRI Reporting Station
Light Rain Light Rain  
Wind Chill: 28°   Ceiling: 1300
Heat Index: 36°   Visibility: 10mi
Dew Point: 34°   Wind: 10mph
Humidity: 93%   Direction: 290°WNW
Pressure: 30.13"   Gusts: NA
Location:  36.55°N, 82.66°W
Report Text: KTRI 271423Z 29009KT 10SM -RA FEW008 BKN013 OVC026 02/01 A3013 RMK AO2 P0000 T00220011
Loading
Personal Weather Stations






























Interactive Weather Map New forecast layout! Learn more

10-Day Weather Forecast

Advertisements
Track Severe Weather on mobile